sensor_id;sensor_type;location;lat;lon;timestamp;P1;durP1;ratioP1;P2;durP2;ratioP2
17696;SDS011;8967;47.984;7.842;2023-02-20T00:01:04;8.38;;;1.80;;
17696;SDS011;8967;47.984;7.842;2023-02-20T00:03:33;2.60;;;1.48;;
17696;SDS011;8967;47.984;7.842;2023-02-20T00:06:02;2.50;;;1.20;;
17696;SDS011;8967;47.984;7.842;2023-02-20T00:08:31;5.15;;;1.20;;
17696;SDS011;8967;47.984;7.842;2023-02-20T00:10:58;4.43;;;1.70;;
17696;SDS011;8967;47.984;7.842;2023-02-20T00:13:25;2.90;;;1.10;;
17696;SDS011;8967;47.984;7.842;2023-02-20T00:15:52;3.70;;;1.40;;
17696;SDS011;8967;47.984;7.842;2023-02-20T00:18:19;2.13;;;1.08;;
17696;SDS011;8967;47.984;7.842;2023-02-20T00:20:47;2.92;;;1.30;;
17696;SDS011;8967;47.984;7.842;2023-02-20T00:23:16;6.45;;;1.33;;
17696;SDS011;8967;47.984;7.842;2023-02-20T00:25:43;4.38;;;1.40;;
17696;SDS011;8967;47.984;7.842;2023-02-20T00:28:11;3.53;;;1.42;;
17696;SDS011;8967;47.984;7.842;2023-02-20T00:30:38;3.35;;;1.17;;
17696;SDS011;8967;47.984;7.842;2023-02-20T00:33:07;7.43;;;1.40;;
17696;SDS011;8967;47.984;7.842;2023-02-20T00:35:36;3.38;;;1.38;;
17696;SDS011;8967;47.984;7.842;2023-02-20T00:38:05;1.70;;;1.20;;
17696;SDS011;8967;47.984;7.842;2023-02-20T00:40:32;6.28;;;1.33;;
17696;SDS011;8967;47.984;7.842;2023-02-20T00:43:01;3.50;;;1.60;;
17696;SDS011;8967;47.984;7.842;2023-02-20T00:45:29;3.05;;;1.42;;
17696;SDS011;8967;47.984;7.842;2023-02-20T00:47:56;3.10;;;1.15;;
17696;SDS011;8967;47.984;7.842;2023-02-20T00:50:23;4.85;;;1.13;;
17696;SDS011;8967;47.984;7.842;2023-02-20T00:52:49;2.78;;;1.20;;
17696;SDS011;8967;47.984;7.842;2023-02-20T00:55:18;3.05;;;1.10;;
17696;SDS011;8967;47.984;7.842;2023-02-20T00:57:45;2.45;;;1.33;;
17696;SDS011;8967;47.984;7.842;2023-02-20T01:00:16;4.50;;;1.20;;
17696;SDS011;8967;47.984;7.842;2023-02-20T01:02:47;2.30;;;1.17;;
17696;SDS011;8967;47.984;7.842;2023-02-20T01:05:14;3.17;;;1.10;;
17696;SDS011;8967;47.984;7.842;2023-02-20T01:07:41;5.30;;;1.48;;
17696;SDS011;8967;47.984;7.842;2023-02-20T01:10:08;2.42;;;0.93;;
17696;SDS011;8967;47.984;7.842;2023-02-20T01:12:38;3.78;;;1.05;;
17696;SDS011;8967;47.984;7.842;2023-02-20T01:15:08;3.10;;;1.30;;
17696;SDS011;8967;47.984;7.842;2023-02-20T01:17:37;2.15;;;1.25;;
17696;SDS011;8967;47.984;7.842;2023-02-20T01:20:04;6.75;;;1.60;;
17696;SDS011;8967;47.984;7.842;2023-02-20T01:22:33;3.92;;;1.40;;
17696;SDS011;8967;47.984;7.842;2023-02-20T01:25:00;5.65;;;1.20;;
17696;SDS011;8967;47.984;7.842;2023-02-20T01:27:27;3.78;;;1.23;;
17696;SDS011;8967;47.984;7.842;2023-02-20T01:29:59;3.08;;;1.30;;
17696;SDS011;8967;47.984;7.842;2023-02-20T01:32:26;2.08;;;1.20;;
17696;SDS011;8967;47.984;7.842;2023-02-20T01:34:53;3.33;;;1.48;;
17696;SDS011;8967;47.984;7.842;2023-02-20T01:37:20;4.72;;;1.20;;
17696;SDS011;8967;47.984;7.842;2023-02-20T01:39:47;2.00;;;1.30;;
17696;SDS011;8967;47.984;7.842;2023-02-20T01:42:17;2.88;;;1.23;;
17696;SDS011;8967;47.984;7.842;2023-02-20T01:44:47;4.57;;;1.50;;
17696;SDS011;8967;47.984;7.842;2023-02-20T01:47:17;2.78;;;1.40;;
17696;SDS011;8967;47.984;7.842;2023-02-20T01:49:46;2.90;;;1.30;;
17696;SDS011;8967;47.984;7.842;2023-02-20T01:52:16;2.20;;;1.30;;
17696;SDS011;8967;47.984;7.842;2023-02-20T01:54:48;3.58;;;1.20;;
17696;SDS011;8967;47.984;7.842;2023-02-20T01:57:22;4.22;;;1.58;;
17696;SDS011;8967;47.984;7.842;2023-02-20T01:59:52;3.88;;;1.70;;
17696;SDS011;8967;47.984;7.842;2023-02-20T02:02:24;4.90;;;1.50;;
17696;SDS011;8967;47.984;7.842;2023-02-20T02:04:53;6.97;;;1.50;;
17696;SDS011;8967;47.984;7.842;2023-02-20T02:07:21;2.75;;;1.30;;
17696;SDS011;8967;47.984;7.842;2023-02-20T02:09:50;2.10;;;1.40;;
17696;SDS011;8967;47.984;7.842;2023-02-20T02:12:20;3.83;;;1.63;;
17696;SDS011;8967;47.984;7.842;2023-02-20T02:14:48;2.40;;;1.30;;
17696;SDS011;8967;47.984;7.842;2023-02-20T02:20:18;2.90;;;1.50;;
17696;SDS011;8967;47.984;7.842;2023-02-20T02:26:01;2.13;;;1.10;;
17696;SDS011;8967;47.984;7.842;2023-02-20T02:31:47;3.65;;;1.40;;
17696;SDS011;8967;47.984;7.842;2023-02-20T02:34:44;4.38;;;1.17;;
17696;SDS011;8967;47.984;7.842;2023-02-20T02:37:51;5.65;;;1.90;;
17696;SDS011;8967;47.984;7.842;2023-02-20T02:40:25;3.85;;;1.40;;
17696;SDS011;8967;47.984;7.842;2023-02-20T02:43:02;2.75;;;1.20;;
17696;SDS011;8967;47.984;7.842;2023-02-20T02:45:36;5.43;;;1.58;;
17696;SDS011;8967;47.984;7.842;2023-02-20T02:48:10;2.97;;;1.27;;
17696;SDS011;8967;47.984;7.842;2023-02-20T02:50:44;6.28;;;1.48;;
17696;SDS011;8967;47.984;7.842;2023-02-20T02:53:15;5.55;;;1.38;;
17696;SDS011;8967;47.984;7.842;2023-02-20T02:55:42;3.13;;;1.30;;
17696;SDS011;8967;47.984;7.842;2023-02-20T02:58:08;1.58;;;1.30;;
17696;SDS011;8967;47.984;7.842;2023-02-20T03:00:38;5.07;;;1.67;;
17696;SDS011;8967;47.984;7.842;2023-02-20T03:03:09;2.17;;;1.10;;
17696;SDS011;8967;47.984;7.842;2023-02-20T03:05:41;4.40;;;1.60;;
17696;SDS011;8967;47.984;7.842;2023-02-20T03:08:16;6.13;;;1.77;;
17696;SDS011;8967;47.984;7.842;2023-02-20T03:10:55;2.78;;;1.30;;
17696;SDS011;8967;47.984;7.842;2023-02-20T03:13:27;2.92;;;1.60;;
17696;SDS011;8967;47.984;7.842;2023-02-20T03:16:15;3.45;;;1.38;;
17696;SDS011;8967;47.984;7.842;2023-02-20T03:18:46;2.83;;;1.23;;
17696;SDS011;8967;47.984;7.842;2023-02-20T03:21:16;5.82;;;1.77;;
17696;SDS011;8967;47.984;7.842;2023-02-20T03:23:47;3.45;;;1.10;;
17696;SDS011;8967;47.984;7.842;2023-02-20T03:26:21;3.45;;;1.60;;
17696;SDS011;8967;47.984;7.842;2023-02-20T03:28:55;6.65;;;1.58;;
17696;SDS011;8967;47.984;7.842;2023-02-20T03:31:26;3.08;;;1.70;;
17696;SDS011;8967;47.984;7.842;2023-02-20T03:34:07;4.35;;;1.50;;
17696;SDS011;8967;47.984;7.842;2023-02-20T03:36:56;5.82;;;1.50;;
17696;SDS011;8967;47.984;7.842;2023-02-20T03:39:48;2.65;;;1.30;;
17696;SDS011;8967;47.984;7.842;2023-02-20T03:42:36;3.90;;;1.60;;
17696;SDS011;8967;47.984;7.842;2023-02-20T03:45:31;7.63;;;1.33;;
17696;SDS011;8967;47.984;7.842;2023-02-20T03:48:04;2.92;;;1.30;;
17696;SDS011;8967;47.984;7.842;2023-02-20T03:50:34;2.58;;;1.52;;
17696;SDS011;8967;47.984;7.842;2023-02-20T03:53:07;2.45;;;1.15;;
17696;SDS011;8967;47.984;7.842;2023-02-20T03:55:36;3.38;;;1.40;;
17696;SDS011;8967;47.984;7.842;2023-02-20T03:58:07;4.00;;;1.40;;
17696;SDS011;8967;47.984;7.842;2023-02-20T04:00:37;2.00;;;1.33;;
17696;SDS011;8967;47.984;7.842;2023-02-20T04:03:09;1.88;;;1.40;;
17696;SDS011;8967;47.984;7.842;2023-02-20T04:05:43;4.05;;;1.33;;
17696;SDS011;8967;47.984;7.842;2023-02-20T04:08:17;3.13;;;1.55;;
17696;SDS011;8967;47.984;7.842;2023-02-20T04:10:51;2.28;;;1.20;;
17696;SDS011;8967;47.984;7.842;2023-02-20T04:13:22;9.00;;;1.47;;
17696;SDS011;8967;47.984;7.842;2023-02-20T04:15:50;4.47;;;1.67;;
17696;SDS011;8967;47.984;7.842;2023-02-20T04:18:19;1.37;;;1.20;;
17696;SDS011;8967;47.984;7.842;2023-02-20T04:20:51;11.02;;;1.73;;
17696;SDS011;8967;47.984;7.842;2023-02-20T04:23:28;2.23;;;1.10;;
17696;SDS011;8967;47.984;7.842;2023-02-20T04:26:01;1.70;;;1.00;;
17696;SDS011;8967;47.984;7.842;2023-02-20T04:28:33;4.32;;;1.60;;
17696;SDS011;8967;47.984;7.842;2023-02-20T04:31:04;8.18;;;1.60;;
17696;SDS011;8967;47.984;7.842;2023-02-20T04:33:33;5.17;;;1.60;;
17696;SDS011;8967;47.984;7.842;2023-02-20T04:36:06;4.85;;;2.03;;
17696;SDS011;8967;47.984;7.842;2023-02-20T04:38:34;4.60;;;1.50;;
17696;SDS011;8967;47.984;7.842;2023-02-20T04:41:05;3.08;;;1.33;;
17696;SDS011;8967;47.984;7.842;2023-02-20T04:43:33;3.83;;;1.87;;
17696;SDS011;8967;47.984;7.842;2023-02-20T04:46:00;2.40;;;1.80;;
17696;SDS011;8967;47.984;7.842;2023-02-20T04:48:28;4.13;;;1.97;;
17696;SDS011;8967;47.984;7.842;2023-02-20T04:50:58;3.83;;;1.80;;
17696;SDS011;8967;47.984;7.842;2023-02-20T04:53:25;2.90;;;1.80;;
17696;SDS011;8967;47.984;7.842;2023-02-20T04:55:52;2.07;;;1.43;;
17696;SDS011;8967;47.984;7.842;2023-02-20T04:58:24;1.58;;;1.20;;
17696;SDS011;8967;47.984;7.842;2023-02-20T05:00:58;4.27;;;1.80;;
17696;SDS011;8967;47.984;7.842;2023-02-20T05:03:28;4.27;;;1.33;;
17696;SDS011;8967;47.984;7.842;2023-02-20T05:05:54;3.90;;;1.57;;
17696;SDS011;8967;47.984;7.842;2023-02-20T05:08:23;2.72;;;1.30;;
17696;SDS011;8967;47.984;7.842;2023-02-20T05:10:50;4.20;;;1.37;;
17696;SDS011;8967;47.984;7.842;2023-02-20T05:13:17;3.10;;;1.50;;
17696;SDS011;8967;47.984;7.842;2023-02-20T05:15:48;4.57;;;2.20;;
17696;SDS011;8967;47.984;7.842;2023-02-20T05:18:22;5.65;;;1.88;;
17696;SDS011;8967;47.984;7.842;2023-02-20T05:20:49;5.47;;;2.05;;
17696;SDS011;8967;47.984;7.842;2023-02-20T05:23:33;2.38;;;1.63;;
17696;SDS011;8967;47.984;7.842;2023-02-20T05:26:00;5.13;;;1.73;;
17696;SDS011;8967;47.984;7.842;2023-02-20T05:28:27;3.77;;;1.73;;
17696;SDS011;8967;47.984;7.842;2023-02-20T05:30:58;7.07;;;2.20;;
17696;SDS011;8967;47.984;7.842;2023-02-20T05:33:25;2.93;;;2.07;;
17696;SDS011;8967;47.984;7.842;2023-02-20T05:35:52;4.77;;;2.00;;
17696;SDS011;8967;47.984;7.842;2023-02-20T05:38:18;4.87;;;2.10;;
17696;SDS011;8967;47.984;7.842;2023-02-20T05:40:45;4.27;;;2.13;;
17696;SDS011;8967;47.984;7.842;2023-02-20T05:43:12;2.53;;;1.80;;
17696;SDS011;8967;47.984;7.842;2023-02-20T05:45:41;5.80;;;1.83;;
17696;SDS011;8967;47.984;7.842;2023-02-20T05:48:10;3.97;;;1.60;;
17696;SDS011;8967;47.984;7.842;2023-02-20T05:50:39;6.17;;;1.70;;
17696;SDS011;8967;47.984;7.842;2023-02-20T05:53:15;3.03;;;1.57;;
17696;SDS011;8967;47.984;7.842;2023-02-20T05:55:42;3.38;;;1.80;;
17696;SDS011;8967;47.984;7.842;2023-02-20T05:58:11;6.50;;;2.43;;
17696;SDS011;8967;47.984;7.842;2023-02-20T06:00:38;2.47;;;1.97;;
17696;SDS011;8967;47.984;7.842;2023-02-20T06:03:05;2.57;;;1.83;;
17696;SDS011;8967;47.984;7.842;2023-02-20T06:05:35;2.13;;;1.60;;
17696;SDS011;8967;47.984;7.842;2023-02-20T06:08:02;3.10;;;1.87;;
17696;SDS011;8967;47.984;7.842;2023-02-20T06:10:30;3.33;;;1.63;;
17696;SDS011;8967;47.984;7.842;2023-02-20T06:12:56;2.73;;;1.30;;
17696;SDS011;8967;47.984;7.842;2023-02-20T06:15:23;3.60;;;1.53;;
17696;SDS011;8967;47.984;7.842;2023-02-20T06:17:50;6.23;;;1.70;;
17696;SDS011;8967;47.984;7.842;2023-02-20T06:20:17;3.33;;;1.50;;
17696;SDS011;8967;47.984;7.842;2023-02-20T06:22:47;2.87;;;1.60;;
17696;SDS011;8967;47.984;7.842;2023-02-20T06:25:14;5.00;;;1.73;;
17696;SDS011;8967;47.984;7.842;2023-02-20T06:27:41;2.20;;;1.60;;
17696;SDS011;8967;47.984;7.842;2023-02-20T06:30:08;3.67;;;1.80;;
17696;SDS011;8967;47.984;7.842;2023-02-20T06:32:36;4.60;;;2.00;;
17696;SDS011;8967;47.984;7.842;2023-02-20T06:35:03;2.30;;;1.90;;
17696;SDS011;8967;47.984;7.842;2023-02-20T06:37:35;4.90;;;2.07;;
17696;SDS011;8967;47.984;7.842;2023-02-20T06:40:04;3.00;;;1.67;;
17696;SDS011;8967;47.984;7.842;2023-02-20T06:42:31;4.03;;;1.50;;
17696;SDS011;8967;47.984;7.842;2023-02-20T06:44:58;7.17;;;1.97;;
17696;SDS011;8967;47.984;7.842;2023-02-20T06:47:25;2.67;;;1.63;;
17696;SDS011;8967;47.984;7.842;2023-02-20T06:49:52;6.40;;;1.83;;
17696;SDS011;8967;47.984;7.842;2023-02-20T06:52:19;8.50;;;1.83;;
17696;SDS011;8967;47.984;7.842;2023-02-20T06:54:46;5.47;;;2.10;;
17696;SDS011;8967;47.984;7.842;2023-02-20T06:57:16;5.60;;;2.00;;
17696;SDS011;8967;47.984;7.842;2023-02-20T06:59:46;5.67;;;1.80;;
17696;SDS011;8967;47.984;7.842;2023-02-20T07:02:14;2.77;;;1.90;;
17696;SDS011;8967;47.984;7.842;2023-02-20T07:04:42;6.90;;;1.83;;
17696;SDS011;8967;47.984;7.842;2023-02-20T07:07:12;6.37;;;2.27;;
17696;SDS011;8967;47.984;7.842;2023-02-20T07:09:39;6.73;;;1.93;;
17696;SDS011;8967;47.984;7.842;2023-02-20T07:12:06;5.43;;;2.57;;
17696;SDS011;8967;47.984;7.842;2023-02-20T07:14:35;4.43;;;1.87;;
17696;SDS011;8967;47.984;7.842;2023-02-20T07:17:04;6.43;;;2.23;;
17696;SDS011;8967;47.984;7.842;2023-02-20T07:19:31;4.20;;;2.27;;
17696;SDS011;8967;47.984;7.842;2023-02-20T07:21:57;8.77;;;2.40;;
17696;SDS011;8967;47.984;7.842;2023-02-20T07:24:24;6.33;;;2.10;;
17696;SDS011;8967;47.984;7.842;2023-02-20T07:26:52;3.77;;;2.27;;
17696;SDS011;8967;47.984;7.842;2023-02-20T07:29:19;4.10;;;2.40;;
17696;SDS011;8967;47.984;7.842;2023-02-20T07:31:49;5.90;;;2.43;;
17696;SDS011;8967;47.984;7.842;2023-02-20T07:34:16;5.23;;;2.10;;
17696;SDS011;8967;47.984;7.842;2023-02-20T07:36:44;7.23;;;2.00;;
17696;SDS011;8967;47.984;7.842;2023-02-20T07:39:12;4.30;;;1.90;;
17696;SDS011;8967;47.984;7.842;2023-02-20T07:41:39;2.73;;;2.03;;
17696;SDS011;8967;47.984;7.842;2023-02-20T07:44:22;8.80;;;2.70;;
17696;SDS011;8967;47.984;7.842;2023-02-20T07:46:50;4.70;;;2.60;;
17696;SDS011;8967;47.984;7.842;2023-02-20T07:49:17;7.47;;;2.37;;
17696;SDS011;8967;47.984;7.842;2023-02-20T07:51:44;5.97;;;3.17;;
17696;SDS011;8967;47.984;7.842;2023-02-20T07:54:11;4.20;;;2.87;;
17696;SDS011;8967;47.984;7.842;2023-02-20T07:56:39;4.93;;;2.50;;
17696;SDS011;8967;47.984;7.842;2023-02-20T07:59:06;4.93;;;2.07;;
17696;SDS011;8967;47.984;7.842;2023-02-20T08:01:37;4.23;;;2.27;;
17696;SDS011;8967;47.984;7.842;2023-02-20T08:04:05;4.67;;;2.50;;
17696;SDS011;8967;47.984;7.842;2023-02-20T08:06:36;3.77;;;2.20;;
17696;SDS011;8967;47.984;7.842;2023-02-20T08:09:03;4.30;;;2.07;;
17696;SDS011;8967;47.984;7.842;2023-02-20T08:11:31;6.27;;;2.20;;
17696;SDS011;8967;47.984;7.842;2023-02-20T08:14:02;4.83;;;2.70;;
17696;SDS011;8967;47.984;7.842;2023-02-20T08:16:30;5.43;;;2.13;;
17696;SDS011;8967;47.984;7.842;2023-02-20T08:19:00;4.73;;;2.40;;
17696;SDS011;8967;47.984;7.842;2023-02-20T08:21:28;3.93;;;2.30;;
17696;SDS011;8967;47.984;7.842;2023-02-20T08:23:55;5.20;;;2.20;;
17696;SDS011;8967;47.984;7.842;2023-02-20T08:26:22;3.83;;;2.20;;
17696;SDS011;8967;47.984;7.842;2023-02-20T08:28:49;5.67;;;2.27;;
17696;SDS011;8967;47.984;7.842;2023-02-20T08:31:17;4.83;;;2.07;;
17696;SDS011;8967;47.984;7.842;2023-02-20T08:33:45;4.72;;;2.10;;
17696;SDS011;8967;47.984;7.842;2023-02-20T08:36:12;2.10;;;1.87;;
17696;SDS011;8967;47.984;7.842;2023-02-20T08:38:41;3.65;;;1.55;;
17696;SDS011;8967;47.984;7.842;2023-02-20T08:41:11;2.77;;;1.80;;
17696;SDS011;8967;47.984;7.842;2023-02-20T08:43:39;4.43;;;2.40;;
17696;SDS011;8967;47.984;7.842;2023-02-20T08:46:11;3.83;;;1.85;;
17696;SDS011;8967;47.984;7.842;2023-02-20T08:48:40;1.92;;;1.73;;
17696;SDS011;8967;47.984;7.842;2023-02-20T08:51:10;5.78;;;2.28;;
17696;SDS011;8967;47.984;7.842;2023-02-20T08:53:38;4.03;;;2.28;;
17696;SDS011;8967;47.984;7.842;2023-02-20T08:56:06;6.47;;;2.50;;
17696;SDS011;8967;47.984;7.842;2023-02-20T08:58:33;3.00;;;2.03;;
17696;SDS011;8967;47.984;7.842;2023-02-20T09:01:03;4.47;;;2.60;;
17696;SDS011;8967;47.984;7.842;2023-02-20T09:03:30;5.43;;;2.20;;
17696;SDS011;8967;47.984;7.842;2023-02-20T09:05:58;5.88;;;2.20;;
17696;SDS011;8967;47.984;7.842;2023-02-20T09:08:25;4.97;;;2.20;;
17696;SDS011;8967;47.984;7.842;2023-02-20T09:10:52;6.68;;;2.20;;
17696;SDS011;8967;47.984;7.842;2023-02-20T09:13:20;3.50;;;2.42;;
17696;SDS011;8967;47.984;7.842;2023-02-20T09:15:48;3.80;;;2.28;;
17696;SDS011;8967;47.984;7.842;2023-02-20T09:18:15;3.55;;;1.85;;
17696;SDS011;8967;47.984;7.842;2023-02-20T09:20:44;3.47;;;1.90;;
17696;SDS011;8967;47.984;7.842;2023-02-20T09:23:12;6.90;;;3.15;;
17696;SDS011;8967;47.984;7.842;2023-02-20T09:25:39;12.82;;;3.53;;
17696;SDS011;8967;47.984;7.842;2023-02-20T09:28:06;4.18;;;2.92;;
17696;SDS011;8967;47.984;7.842;2023-02-20T09:30:35;4.90;;;2.20;;
17696;SDS011;8967;47.984;7.842;2023-02-20T09:33:02;4.05;;;1.95;;
17696;SDS011;8967;47.984;7.842;2023-02-20T09:35:29;4.95;;;2.10;;
17696;SDS011;8967;47.984;7.842;2023-02-20T09:37:56;4.22;;;2.15;;
17696;SDS011;8967;47.984;7.842;2023-02-20T09:40:24;3.38;;;2.28;;
17696;SDS011;8967;47.984;7.842;2023-02-20T09:43:00;6.55;;;1.83;;
17696;SDS011;8967;47.984;7.842;2023-02-20T09:45:39;5.72;;;2.03;;
17696;SDS011;8967;47.984;7.842;2023-02-20T09:48:13;3.25;;;1.75;;
17696;SDS011;8967;47.984;7.842;2023-02-20T09:50:54;6.32;;;2.10;;
17696;SDS011;8967;47.984;7.842;2023-02-20T09:53:28;3.50;;;1.77;;
17696;SDS011;8967;47.984;7.842;2023-02-20T09:56:00;4.40;;;1.63;;
17696;SDS011;8967;47.984;7.842;2023-02-20T09:58:34;3.78;;;1.85;;
17696;SDS011;8967;47.984;7.842;2023-02-20T10:01:08;6.93;;;1.80;;
17696;SDS011;8967;47.984;7.842;2023-02-20T10:03:43;3.45;;;1.52;;
17696;SDS011;8967;47.984;7.842;2023-02-20T10:06:18;5.20;;;1.60;;
17696;SDS011;8967;47.984;7.842;2023-02-20T10:08:49;3.33;;;1.55;;
17696;SDS011;8967;47.984;7.842;2023-02-20T10:11:18;2.35;;;1.58;;
17696;SDS011;8967;47.984;7.842;2023-02-20T10:14:16;4.15;;;1.95;;
17696;SDS011;8967;47.984;7.842;2023-02-20T10:16:54;2.60;;;1.48;;
17696;SDS011;8967;47.984;7.842;2023-02-20T10:19:33;7.78;;;2.00;;
17696;SDS011;8967;47.984;7.842;2023-02-20T10:22:08;3.55;;;1.90;;
17696;SDS011;8967;47.984;7.842;2023-02-20T10:24:45;2.47;;;2.03;;
17696;SDS011;8967;47.984;7.842;2023-02-20T10:27:26;4.38;;;1.88;;
17696;SDS011;8967;47.984;7.842;2023-02-20T10:29:59;5.22;;;2.28;;
17696;SDS011;8967;47.984;7.842;2023-02-20T10:32:34;4.72;;;2.60;;
17696;SDS011;8967;47.984;7.842;2023-02-20T10:35:05;8.38;;;2.83;;
17696;SDS011;8967;47.984;7.842;2023-02-20T10:37:36;6.85;;;2.40;;
17696;SDS011;8967;47.984;7.842;2023-02-20T10:40:08;3.53;;;2.60;;
17696;SDS011;8967;47.984;7.842;2023-02-20T10:42:44;6.63;;;2.13;;
17696;SDS011;8967;47.984;7.842;2023-02-20T10:45:21;4.97;;;2.22;;
17696;SDS011;8967;47.984;7.842;2023-02-20T10:47:58;6.32;;;2.17;;
17696;SDS011;8967;47.984;7.842;2023-02-20T10:50:31;2.80;;;2.15;;
17696;SDS011;8967;47.984;7.842;2023-02-20T10:53:03;4.78;;;2.80;;
17696;SDS011;8967;47.984;7.842;2023-02-20T10:55:39;4.82;;;2.40;;
17696;SDS011;8967;47.984;7.842;2023-02-20T10:58:12;3.92;;;2.40;;
17696;SDS011;8967;47.984;7.842;2023-02-20T11:00:45;4.15;;;2.03;;
17696;SDS011;8967;47.984;7.842;2023-02-20T11:03:17;3.33;;;1.83;;
17696;SDS011;8967;47.984;7.842;2023-02-20T11:05:50;5.95;;;2.25;;
17696;SDS011;8967;47.984;7.842;2023-02-20T11:08:19;8.45;;;2.88;;
17696;SDS011;8967;47.984;7.842;2023-02-20T11:10:46;4.70;;;2.35;;
17696;SDS011;8967;47.984;7.842;2023-02-20T11:13:14;3.83;;;2.35;;
17696;SDS011;8967;47.984;7.842;2023-02-20T11:15:45;4.25;;;2.55;;
17696;SDS011;8967;47.984;7.842;2023-02-20T11:18:22;4.25;;;1.92;;
17696;SDS011;8967;47.984;7.842;2023-02-20T11:20:52;3.13;;;2.22;;
17696;SDS011;8967;47.984;7.842;2023-02-20T11:23:39;7.93;;;3.00;;
17696;SDS011;8967;47.984;7.842;2023-02-20T11:26:16;4.60;;;2.67;;
17696;SDS011;8967;47.984;7.842;2023-02-20T11:28:56;4.22;;;2.72;;
17696;SDS011;8967;47.984;7.842;2023-02-20T11:31:29;4.60;;;2.33;;
17696;SDS011;8967;47.984;7.842;2023-02-20T11:33:58;5.28;;;2.92;;
17696;SDS011;8967;47.984;7.842;2023-02-20T11:36:27;5.93;;;2.78;;
17696;SDS011;8967;47.984;7.842;2023-02-20T11:38:59;5.50;;;2.70;;
17696;SDS011;8967;47.984;7.842;2023-02-20T11:41:30;5.07;;;2.92;;
17696;SDS011;8967;47.984;7.842;2023-02-20T11:44:06;3.90;;;2.13;;
17696;SDS011;8967;47.984;7.842;2023-02-20T11:46:43;5.68;;;2.28;;
17696;SDS011;8967;47.984;7.842;2023-02-20T11:49:23;5.10;;;3.03;;
17696;SDS011;8967;47.984;7.842;2023-02-20T11:51:52;4.90;;;2.65;;
17696;SDS011;8967;47.984;7.842;2023-02-20T11:54:33;6.88;;;2.78;;
17696;SDS011;8967;47.984;7.842;2023-02-20T11:57:01;6.50;;;2.95;;
17696;SDS011;8967;47.984;7.842;2023-02-20T11:59:36;4.38;;;2.20;;
17696;SDS011;8967;47.984;7.842;2023-02-20T12:02:09;8.77;;;2.33;;
17696;SDS011;8967;47.984;7.842;2023-02-20T12:04:39;2.55;;;1.90;;
17696;SDS011;8967;47.984;7.842;2023-02-20T12:07:16;6.75;;;2.20;;
17696;SDS011;8967;47.984;7.842;2023-02-20T12:09:50;2.95;;;1.90;;
17696;SDS011;8967;47.984;7.842;2023-02-20T12:12:22;4.90;;;2.53;;
17696;SDS011;8967;47.984;7.842;2023-02-20T12:14:49;5.68;;;2.58;;
17696;SDS011;8967;47.984;7.842;2023-02-20T12:17:20;15.73;;;8.63;;
17696;SDS011;8967;47.984;7.842;2023-02-20T12:19:59;18.80;;;11.35;;
17696;SDS011;8967;47.984;7.842;2023-02-20T12:22:33;8.27;;;4.88;;
17696;SDS011;8967;47.984;7.842;2023-02-20T12:25:11;8.32;;;4.40;;
17696;SDS011;8967;47.984;7.842;2023-02-20T12:27:49;5.55;;;3.67;;
17696;SDS011;8967;47.984;7.842;2023-02-20T12:30:42;3.40;;;2.53;;
17696;SDS011;8967;47.984;7.842;2023-02-20T12:33:29;2.90;;;2.60;;
17696;SDS011;8967;47.984;7.842;2023-02-20T12:36:22;3.17;;;2.38;;
17696;SDS011;8967;47.984;7.842;2023-02-20T12:38:56;5.30;;;2.63;;
17696;SDS011;8967;47.984;7.842;2023-02-20T12:41:38;5.45;;;2.55;;
17696;SDS011;8967;47.984;7.842;2023-02-20T12:44:27;3.83;;;2.55;;
17696;SDS011;8967;47.984;7.842;2023-02-20T12:47:03;5.15;;;2.58;;
17696;SDS011;8967;47.984;7.842;2023-02-20T12:50:04;3.83;;;2.40;;
17696;SDS011;8967;47.984;7.842;2023-02-20T12:52:52;3.85;;;2.22;;
17696;SDS011;8967;47.984;7.842;2023-02-20T12:55:43;6.57;;;2.40;;
17696;SDS011;8967;47.984;7.842;2023-02-20T12:58:25;3.95;;;1.80;;
17696;SDS011;8967;47.984;7.842;2023-02-20T13:01:00;3.47;;;2.10;;
17696;SDS011;8967;47.984;7.842;2023-02-20T13:03:34;4.55;;;2.70;;
17696;SDS011;8967;47.984;7.842;2023-02-20T13:06:06;6.60;;;2.83;;
17696;SDS011;8967;47.984;7.842;2023-02-20T13:08:38;4.65;;;2.50;;
17696;SDS011;8967;47.984;7.842;2023-02-20T13:11:10;3.83;;;2.10;;
17696;SDS011;8967;47.984;7.842;2023-02-20T13:13:49;5.60;;;2.92;;
17696;SDS011;8967;47.984;7.842;2023-02-20T13:16:31;5.95;;;2.63;;
17696;SDS011;8967;47.984;7.842;2023-02-20T13:19:04;4.55;;;2.38;;
17696;SDS011;8967;47.984;7.842;2023-02-20T13:21:41;4.82;;;2.70;;
17696;SDS011;8967;47.984;7.842;2023-02-20T13:24:28;3.58;;;2.33;;
17696;SDS011;8967;47.984;7.842;2023-02-20T13:26:59;5.97;;;2.83;;
17696;SDS011;8967;47.984;7.842;2023-02-20T13:29:34;4.57;;;2.13;;
17696;SDS011;8967;47.984;7.842;2023-02-20T13:34:48;3.63;;;2.22;;
17696;SDS011;8967;47.984;7.842;2023-02-20T13:40:34;4.97;;;2.33;;
17696;SDS011;8967;47.984;7.842;2023-02-20T13:43:18;3.60;;;2.00;;
17696;SDS011;8967;47.984;7.842;2023-02-20T13:48:42;2.70;;;1.98;;
17696;SDS011;8967;47.984;7.842;2023-02-20T13:54:11;4.20;;;2.38;;
17696;SDS011;8967;47.984;7.842;2023-02-20T13:56:50;3.47;;;2.25;;
17696;SDS011;8967;47.984;7.842;2023-02-20T13:59:22;4.13;;;2.30;;
17696;SDS011;8967;47.984;7.842;2023-02-20T14:01:56;2.85;;;2.50;;
17696;SDS011;8967;47.984;7.842;2023-02-20T14:04:28;5.13;;;3.00;;
17696;SDS011;8967;47.984;7.842;2023-02-20T14:06:56;5.40;;;2.60;;
17696;SDS011;8967;47.984;7.842;2023-02-20T14:09:25;5.57;;;2.40;;
17696;SDS011;8967;47.984;7.842;2023-02-20T14:12:02;4.65;;;2.40;;
17696;SDS011;8967;47.984;7.842;2023-02-20T14:14:33;6.80;;;2.60;;
17696;SDS011;8967;47.984;7.842;2023-02-20T14:17:04;4.57;;;2.00;;
17696;SDS011;8967;47.984;7.842;2023-02-20T14:19:37;4.43;;;2.08;;
17696;SDS011;8967;47.984;7.842;2023-02-20T14:25:13;2.72;;;2.05;;
17696;SDS011;8967;47.984;7.842;2023-02-20T14:27:46;4.57;;;2.45;;
17696;SDS011;8967;47.984;7.842;2023-02-20T14:30:16;4.18;;;2.00;;
17696;SDS011;8967;47.984;7.842;2023-02-20T14:32:46;4.90;;;2.13;;
17696;SDS011;8967;47.984;7.842;2023-02-20T14:35:24;2.78;;;2.22;;
17696;SDS011;8967;47.984;7.842;2023-02-20T14:38:07;4.55;;;2.28;;
17696;SDS011;8967;47.984;7.842;2023-02-20T14:40:41;3.35;;;2.10;;
17696;SDS011;8967;47.984;7.842;2023-02-20T14:43:13;3.35;;;1.92;;
17696;SDS011;8967;47.984;7.842;2023-02-20T14:45:42;3.42;;;2.10;;
17696;SDS011;8967;47.984;7.842;2023-02-20T14:48:20;4.07;;;2.47;;
17696;SDS011;8967;47.984;7.842;2023-02-20T14:51:01;5.00;;;2.60;;
17696;SDS011;8967;47.984;7.842;2023-02-20T14:53:38;2.30;;;2.10;;
17696;SDS011;8967;47.984;7.842;2023-02-20T14:56:13;6.13;;;2.38;;
17696;SDS011;8967;47.984;7.842;2023-02-20T14:58:46;3.97;;;2.13;;
17696;SDS011;8967;47.984;7.842;2023-02-20T15:01:16;4.18;;;2.00;;
17696;SDS011;8967;47.984;7.842;2023-02-20T15:03:53;4.22;;;1.67;;
17696;SDS011;8967;47.984;7.842;2023-02-20T15:06:24;4.85;;;2.10;;
17696;SDS011;8967;47.984;7.842;2023-02-20T15:08:57;3.45;;;2.13;;
17696;SDS011;8967;47.984;7.842;2023-02-20T15:11:25;3.97;;;2.10;;
17696;SDS011;8967;47.984;7.842;2023-02-20T15:13:55;5.00;;;2.20;;
17696;SDS011;8967;47.984;7.842;2023-02-20T15:16:25;2.88;;;2.20;;
17696;SDS011;8967;47.984;7.842;2023-02-20T15:18:55;5.70;;;2.28;;
17696;SDS011;8967;47.984;7.842;2023-02-20T15:21:33;4.07;;;1.60;;
17696;SDS011;8967;47.984;7.842;2023-02-20T15:24:12;2.88;;;1.70;;
17696;SDS011;8967;47.984;7.842;2023-02-20T15:26:52;2.72;;;1.95;;
17696;SDS011;8967;47.984;7.842;2023-02-20T15:29:23;2.83;;;1.92;;
17696;SDS011;8967;47.984;7.842;2023-02-20T15:31:55;6.93;;;1.95;;
17696;SDS011;8967;47.984;7.842;2023-02-20T15:34:24;6.45;;;2.10;;
17696;SDS011;8967;47.984;7.842;2023-02-20T15:36:53;3.05;;;1.60;;
17696;SDS011;8967;47.984;7.842;2023-02-20T15:39:19;3.70;;;1.75;;
17696;SDS011;8967;47.984;7.842;2023-02-20T15:41:47;3.30;;;1.52;;
17696;SDS011;8967;47.984;7.842;2023-02-20T15:44:14;2.53;;;1.50;;
17696;SDS011;8967;47.984;7.842;2023-02-20T15:46:43;2.60;;;1.70;;
17696;SDS011;8967;47.984;7.842;2023-02-20T15:49:10;4.75;;;2.20;;
17696;SDS011;8967;47.984;7.842;2023-02-20T15:51:38;1.80;;;1.63;;